Time;durP1;ratioP1;P1;durP2;ratioP2;P2;SDS_P1;SDS_P2;PMS_P1;PMS_P2;Temp;Humidity;BMP_temperature;BMP_pressure;BME280_temperature;BME280_humidity;BME280_pressure;Samples;Min_cycle;Max_cycle;Signal;HPM_P1;HPM_P2
2023/09/09 00:01:32;;;;;;;14.38;11.82;;;22.80;89.10;;;;;;4974738;28;20038;-88
2023/09/09 00:03:59;;;;;;;14.88;13.23;;;22.80;89.20;;;;;;4957382;28;20114;-88
2023/09/09 00:06:24;;;;;;;15.45;12.48;;;22.80;89.40;;;;;;4973966;28;20448;-87
2023/09/09 00:08:50;;;;;;;16.58;13.88;;;22.80;89.60;;;;;;4957053;28;20039;-87
2023/09/09 00:11:15;;;;;;;16.85;12.73;;;22.80;89.70;;;;;;4956734;28;20019;-87
2023/09/09 00:13:41;;;;;;;14.88;12.98;;;22.80;89.80;;;;;;4974093;28;20030;-89
2023/09/09 00:16:07;;;;;;;15.93;12.48;;;22.80;90.20;;;;;;4957231;28;20489;-89
2023/09/09 00:18:33;;;;;;;16.98;11.73;;;22.70;89.90;;;;;;4973864;28;20031;-89
2023/09/09 00:20:58;;;;;;;16.73;12.55;;;22.70;90.00;;;;;;4973921;28;20149;-89
2023/09/09 00:23:24;;;;;;;14.20;11.73;;;22.70;90.00;;;;;;4974187;28;20061;-87
2023/09/09 00:25:50;;;;;;;16.60;11.95;;;22.70;90.00;;;;;;4973856;28;20102;-88
2023/09/09 00:28:16;;;;;;;14.95;11.30;;;22.70;90.00;;;;;;4974025;28;20033;-89
2023/09/09 00:30:42;;;;;;;16.15;11.82;;;22.60;90.00;;;;;;4974125;28;20027;-88
2023/09/09 00:33:08;;;;;;;14.70;12.32;;;22.60;90.00;;;;;;4974013;28;20050;-86
2023/09/09 00:35:34;;;;;;;15.98;12.48;;;22.60;90.10;;;;;;4956750;28;20022;-88
2023/09/09 00:38:00;;;;;;;14.02;12.55;;;22.60;90.10;;;;;;4974040;28;20036;-89
2023/09/09 00:40:26;;;;;;;17.85;12.73;;;22.60;90.20;;;;;;4972751;28;20027;-86
2023/09/09 00:42:52;;;;;;;14.43;12.73;;;22.50;90.20;;;;;;4974137;28;20093;-88
2023/09/09 00:45:17;;;;;;;13.23;11.82;;;22.50;90.20;;;;;;4973496;28;20031;-88
2023/09/09 00:47:44;;;;;;;13.43;11.93;;;22.50;90.30;;;;;;4956410;28;20440;-88
2023/09/09 00:50:11;;;;;;;13.82;12.30;;;22.40;90.20;;;;;;4973299;28;20600;-88
2023/09/09 00:52:41;;;;;;;14.38;12.88;;;22.40;90.20;;;;;;4973623;28;20027;-87
2023/09/09 00:55:08;;;;;;;12.57;11.20;;;22.30;90.30;;;;;;4973197;28;20042;-86
2023/09/09 00:57:34;;;;;;;13.10;11.38;;;22.30;90.30;;;;;;4973574;28;20035;-87
2023/09/09 01:00:09;;;;;;;13.68;11.73;;;22.30;90.30;;;;;;4956231;28;20185;-88
2023/09/09 01:02:38;;;;;;;13.05;10.77;;;22.30;90.30;;;;;;4956451;28;20082;-85
2023/09/09 01:05:05;;;;;;;14.90;11.43;;;22.20;90.40;;;;;;4973730;28;20058;-88
2023/09/09 01:07:48;;;;;;;13.13;11.77;;;22.20;90.40;;;;;;4956321;28;20702;-86
2023/09/09 01:10:16;;;;;;;14.10;11.20;;;22.10;90.50;;;;;;4973315;28;20058;-89
2023/09/09 01:12:42;;;;;;;15.38;11.52;;;22.10;90.50;;;;;;4973261;28;20050;-88
2023/09/09 01:15:08;;;;;;;13.77;12.18;;;22.10;90.60;;;;;;4956644;28;20031;-87
2023/09/09 01:17:35;;;;;;;14.93;12.18;;;22.00;90.60;;;;;;4958982;28;20030;-88
2023/09/09 01:20:15;;;;;;;15.02;12.38;;;22.10;90.70;;;;;;4977145;28;20023;-88
2023/09/09 01:22:43;;;;;;;13.10;11.32;;;22.00;90.70;;;;;;4976996;28;20047;-89
2023/09/09 01:25:10;;;;;;;14.32;11.07;;;22.00;90.80;;;;;;4959843;28;20130;-89
2023/09/09 01:27:36;;;;;;;12.32;10.82;;;22.00;90.80;;;;;;4977157;28;20164;-89
2023/09/09 01:30:03;;;;;;;14.73;11.00;;;22.00;90.90;;;;;;4977416;28;20122;-87
2023/09/09 01:32:29;;;;;;;14.55;11.52;;;21.90;90.90;;;;;;4976851;28;20042;-89
2023/09/09 01:34:55;;;;;;;14.10;12.02;;;21.90;90.90;;;;;;4976676;28;20023;-89
2023/09/09 01:37:21;;;;;;;12.27;10.75;;;21.80;90.90;;;;;;4959874;28;20054;-89
2023/09/09 01:39:48;;;;;;;12.82;11.52;;;21.90;91.00;;;;;;4977334;28;20105;-87
2023/09/09 01:42:14;;;;;;;13.55;11.88;;;21.80;91.10;;;;;;4960224;28;20034;-86
2023/09/09 01:44:40;;;;;;;13.32;11.38;;;21.70;91.10;;;;;;4977269;28;20026;-87
2023/09/09 01:47:06;;;;;;;12.68;11.23;;;21.70;91.20;;;;;;4977091;28;20106;-89
2023/09/09 01:49:31;;;;;;;14.05;11.50;;;21.70;91.20;;;;;;4975942;28;20038;-88
2023/09/09 01:51:57;;;;;;;13.38;11.70;;;21.70;91.40;;;;;;4976878;28;20026;-88
2023/09/09 01:54:22;;;;;;;14.65;12.40;;;21.70;91.40;;;;;;4977039;28;20026;-88
2023/09/09 01:56:48;;;;;;;13.05;11.63;;;21.70;91.60;;;;;;4977063;28;20030;-89
2023/09/09 01:59:14;;;;;;;15.18;13.25;;;21.60;91.60;;;;;;4976415;28;20081;-87
2023/09/09 02:01:39;;;;;;;15.93;13.18;;;21.60;91.80;;;;;;4976735;28;20038;-86
2023/09/09 02:04:05;;;;;;;14.98;11.70;;;21.60;91.90;;;;;;4959125;28;20023;-88
2023/09/09 02:06:30;;;;;;;14.50;13.00;;;21.60;92.10;;;;;;4976425;28;20035;-88
2023/09/09 02:08:56;;;;;;;15.07;12.95;;;21.60;92.20;;;;;;4959376;28;20057;-89
2023/09/09 02:11:21;;;;;;;15.13;13.32;;;21.60;92.30;;;;;;4976312;28;20054;-89
2023/09/09 02:13:47;;;;;;;15.38;12.77;;;21.50;92.40;;;;;;4976138;28;20026;-89
2023/09/09 02:16:12;;;;;;;15.85;14.15;;;21.60;92.60;;;;;;4975985;28;20030;-86
2023/09/09 02:18:39;;;;;;;17.83;14.00;;;21.50;92.60;;;;;;4975868;28;20407;-88
2023/09/09 02:21:06;;;;;;;17.33;14.85;;;21.50;92.70;;;;;;4976096;28;20370;-88
2023/09/09 02:23:32;;;;;;;16.80;14.95;;;21.50;92.80;;;;;;4975867;28;20440;-88
2023/09/09 02:25:57;;;;;;;16.17;14.32;;;21.50;92.90;;;;;;4975954;28;20030;-84
2023/09/09 02:28:24;;;;;;;19.67;15.13;;;21.40;93.00;;;;;;4958243;28;20129;-85
2023/09/09 02:30:49;;;;;;;16.50;14.75;;;21.50;93.10;;;;;;4976345;28;20480;-87
2023/09/09 02:33:15;;;;;;;16.20;14.15;;;21.40;93.20;;;;;;4958358;28;20050;-88
2023/09/09 02:35:44;;;;;;;17.92;15.88;;;21.40;93.20;;;;;;4976029;28;20460;-89
2023/09/09 02:38:09;;;;;;;16.10;13.75;;;21.40;93.30;;;;;;4975796;28;20035;-89
2023/09/09 02:40:35;;;;;;;15.35;13.57;;;21.40;93.40;;;;;;4975891;28;20107;-88
2023/09/09 02:43:01;;;;;;;13.90;12.50;;;21.40;93.40;;;;;;4958646;28;20477;-89
2023/09/09 02:45:27;;;;;;;15.13;12.82;;;21.30;93.40;;;;;;4958586;28;20046;-89
2023/09/09 02:47:52;;;;;;;15.15;11.48;;;21.30;93.40;;;;;;4976109;28;20038;-87
2023/09/09 02:50:18;;;;;;;13.85;12.02;;;21.30;93.30;;;;;;4975663;28;20027;-87
2023/09/09 02:52:43;;;;;;;14.85;11.73;;;21.20;93.20;;;;;;4975802;28;20110;-88
2023/09/09 02:55:09;;;;;;;13.15;11.27;;;21.10;93.20;;;;;;4975648;28;20061;-87
2023/09/09 02:57:35;;;;;;;14.68;11.30;;;21.10;93.20;;;;;;4975665;28;20114;-89
2023/09/09 03:00:00;;;;;;;14.15;11.98;;;21.00;93.20;;;;;;4974705;28;20023;-90
2023/09/09 03:02:26;;;;;;;12.88;11.00;;;21.00;93.30;;;;;;4957842;28;20488;-86
2023/09/09 03:04:51;;;;;;;13.95;11.77;;;20.90;93.40;;;;;;4975337;28;20030;-87
2023/09/09 03:07:17;;;;;;;15.65;12.00;;;20.90;93.50;;;;;;4957963;28;20035;-87
2023/09/09 03:09:45;;;;;;;13.48;11.40;;;20.90;93.50;;;;;;4975224;28;20041;-88
2023/09/09 03:12:10;;;;;;;14.70;12.63;;;20.90;93.60;;;;;;4975232;28;20027;-89
2023/09/09 03:14:36;;;;;;;15.07;12.70;;;20.90;93.70;;;;;;4958364;28;20026;-88
2023/09/09 03:17:01;;;;;;;15.48;12.27;;;20.90;93.80;;;;;;4977486;28;20027;-88
2023/09/09 03:19:27;;;;;;;13.43;10.77;;;20.90;93.80;;;;;;4978232;28;20498;-89
2023/09/09 03:21:53;;;;;;;14.27;12.77;;;20.90;93.80;;;;;;4979768;28;20038;-89
2023/09/09 03:24:18;;;;;;;14.45;12.32;;;20.80;93.80;;;;;;4964335;28;20042;-87
2023/09/09 03:26:44;;;;;;;16.40;12.88;;;20.90;93.90;;;;;;4982537;28;20026;-86
2023/09/09 03:29:09;;;;;;;15.60;13.30;;;20.90;94.00;;;;;;4963656;28;20081;-88
2023/09/09 03:31:35;;;;;;;17.35;14.32;;;20.80;94.10;;;;;;4958891;28;20086;-86
2023/09/09 03:34:00;;;;;;;16.45;14.70;;;20.80;94.30;;;;;;4974591;28;20683;-84
2023/09/09 03:36:26;;;;;;;20.13;15.13;;;20.80;94.40;;;;;;4973630;28;20299;-88
2023/09/09 03:38:52;;;;;;;17.25;15.45;;;20.80;94.50;;;;;;4973919;28;20031;-89
2023/09/09 03:41:17;;;;;;;18.50;15.18;;;20.80;94.60;;;;;;4974089;28;20547;-89
2023/09/09 03:43:43;;;;;;;18.65;15.70;;;20.70;94.70;;;;;;4975245;28;20465;-89
2023/09/09 03:46:08;;;;;;;17.00;14.50;;;20.70;94.70;;;;;;4957686;28;20018;-88
2023/09/09 03:48:34;;;;;;;15.77;14.05;;;20.70;94.80;;;;;;4973476;28;20047;-88
2023/09/09 03:51:00;;;;;;;17.38;14.70;;;20.70;94.90;;;;;;4974516;28;20086;-89
2023/09/09 03:53:27;;;;;;;20.35;16.42;;;20.60;94.90;;;;;;4957187;28;20097;-86
2023/09/09 03:55:53;;;;;;;18.85;16.65;;;20.60;95.00;;;;;;4974098;28;20049;-88
2023/09/09 03:58:20;;;;;;;18.83;16.50;;;20.70;95.10;;;;;;4974194;28;20484;-89
2023/09/09 04:00:48;;;;;;;18.58;16.48;;;20.60;95.20;;;;;;4974438;28;20026;-89
2023/09/09 04:03:13;;;;;;;19.50;17.02;;;20.60;95.20;;;;;;4974377;28;20094;-87
2023/09/09 04:05:40;;;;;;;17.90;15.85;;;20.50;95.10;;;;;;4974729;28;20070;-88
2023/09/09 04:08:09;;;;;;;18.27;14.80;;;20.50;95.40;;;;;;4974660;28;20097;-89
2023/09/09 04:10:35;;;;;;;16.23;13.43;;;20.50;95.20;;;;;;4958011;28;20033;-87
2023/09/09 04:13:01;;;;;;;16.90;13.98;;;20.50;95.20;;;;;;4977665;28;20061;-86
2023/09/09 04:15:27;;;;;;;18.60;16.60;;;20.40;95.20;;;;;;4976252;28;20026;-88
2023/09/09 04:17:52;;;;;;;24.23;20.73;;;20.40;95.20;;;;;;4958521;28;20027;-90
2023/09/09 04:20:18;;;;;;;24.00;21.48;;;20.30;95.30;;;;;;4957895;28;20401;-89
2023/09/09 04:22:43;;;;;;;28.33;24.35;;;20.30;95.40;;;;;;4973102;28;20512;-88
2023/09/09 04:25:09;;;;;;;27.88;24.98;;;20.30;95.40;;;;;;4974277;28;20027;-86
2023/09/09 04:27:34;;;;;;;27.73;24.55;;;20.20;95.40;;;;;;4957312;28;20023;-88
2023/09/09 04:30:00;;;;;;;30.30;27.05;;;20.20;95.50;;;;;;4974235;28;20037;-90
2023/09/09 04:32:26;;;;;;;32.78;28.77;;;20.20;95.60;;;;;;4956807;28;20050;-89
2023/09/09 04:34:52;;;;;;;35.95;30.15;;;20.10;95.70;;;;;;4975342;28;20335;-90
2023/09/09 04:37:18;;;;;;;36.70;29.25;;;20.10;95.70;;;;;;4984818;28;20054;-89
2023/09/09 04:39:43;;;;;;;32.47;28.60;;;20.00;95.80;;;;;;4993065;28;20027;-89
2023/09/09 04:42:09;;;;;;;30.60;25.98;;;20.00;95.90;;;;;;4993096;28;20040;-87
2023/09/09 04:44:35;;;;;;;30.20;26.92;;;20.00;96.00;;;;;;4990404;28;20034;-87
2023/09/09 04:47:01;;;;;;;35.85;29.00;;;20.00;96.20;;;;;;4985104;28;20374;-88
2023/09/09 04:49:27;;;;;;;34.83;29.67;;;19.90;96.20;;;;;;4974695;28;20420;-89
2023/09/09 04:51:52;;;;;;;39.28;31.67;;;19.90;96.40;;;;;;4963895;28;20122;-89
2023/09/09 04:54:18;;;;;;;39.75;34.15;;;19.90;96.50;;;;;;4977213;28;20393;-87
2023/09/09 04:56:44;;;;;;;42.55;35.67;;;19.90;96.60;;;;;;4978519;28;20030;-88
2023/09/09 04:59:10;;;;;;;64.38;35.67;;;19.90;96.70;;;;;;4959948;28;20034;-88
2023/09/09 05:01:35;;;;;;;81.57;38.15;;;19.80;96.80;;;;;;4976212;28;20027;-88
2023/09/09 05:04:01;;;;;;;91.63;38.92;;;19.80;96.90;;;;;;4959212;28;20019;-89
2023/09/09 05:06:26;;;;;;;103.07;37.33;;;19.70;96.90;;;;;;4976502;28;20109;-88
2023/09/09 05:08:52;;;;;;;91.43;38.20;;;19.70;97.00;;;;;;4977425;28;20046;-90
2023/09/09 05:11:17;;;;;;;79.63;38.00;;;19.70;97.10;;;;;;4977647;28;20037;-88
2023/09/09 05:13:43;;;;;;;111.63;35.63;;;19.70;97.20;;;;;;4976683;28;20031;-85
2023/09/09 05:16:09;;;;;;;122.22;37.90;;;19.70;97.40;;;;;;4976833;28;20030;-88
2023/09/09 05:18:34;;;;;;;86.65;37.63;;;19.60;97.40;;;;;;4977158;28;20030;-88
2023/09/09 05:21:00;;;;;;;89.75;35.47;;;19.60;97.60;;;;;;4977274;28;20113;-88
2023/09/09 05:23:25;;;;;;;77.88;35.22;;;19.60;97.70;;;;;;4976557;28;20059;-87
2023/09/09 05:25:51;;;;;;;61.35;34.10;;;19.60;97.70;;;;;;4959336;28;20030;-88
2023/09/09 05:28:16;;;;;;;79.40;34.38;;;19.60;97.80;;;;;;4976733;28;20034;-88
2023/09/09 05:30:42;;;;;;;83.65;36.67;;;19.50;97.80;;;;;;4959208;28;20579;-87
2023/09/09 05:33:07;;;;;;;68.15;35.30;;;19.50;98.00;;;;;;4977130;28;20035;-87
2023/09/09 05:35:34;;;;;;;69.78;34.13;;;19.50;98.00;;;;;;4977264;28;20034;-83
2023/09/09 05:37:59;;;;;;;52.60;36.83;;;19.40;98.00;;;;;;4976408;28;20547;-86
2023/09/09 05:40:25;;;;;;;64.88;33.90;;;19.40;98.10;;;;;;4976342;28;20034;-88
2023/09/09 05:42:50;;;;;;;49.13;34.88;;;19.40;98.20;;;;;;4976740;28;20086;-88
2023/09/09 05:45:16;;;;;;;52.92;33.30;;;19.40;98.30;;;;;;4958991;28;20039;-87
2023/09/09 05:47:44;;;;;;;53.42;33.72;;;19.40;98.50;;;;;;4976276;28;20037;-87
2023/09/09 05:50:11;;;;;;;51.28;32.45;;;19.40;98.50;;;;;;4975074;28;20073;-87
2023/09/09 05:52:37;;;;;;;53.58;30.02;;;19.40;98.50;;;;;;4976179;28;20030;-87
2023/09/09 05:55:03;;;;;;;50.60;30.70;;;19.40;98.70;;;;;;4976012;28;20038;-88
2023/09/09 05:57:28;;;;;;;49.42;32.15;;;19.40;98.70;;;;;;4958758;28;20037;-87
2023/09/09 05:59:54;;;;;;;53.78;33.00;;;19.40;98.80;;;;;;4975965;28;20025;-86
2023/09/09 06:02:19;;;;;;;55.42;34.30;;;19.30;98.80;;;;;;4958223;28;20023;-86
2023/09/09 06:04:45;;;;;;;43.72;33.42;;;19.30;98.80;;;;;;4976116;28;20022;-88
2023/09/09 06:07:11;;;;;;;50.28;31.95;;;19.40;98.80;;;;;;4974578;28;20027;-86
2023/09/09 06:09:37;;;;;;;40.08;30.40;;;19.30;98.80;;;;;;4976099;28;20034;-87
2023/09/09 06:12:03;;;;;;;56.38;30.55;;;19.30;98.90;;;;;;4975592;28;20433;-86
2023/09/09 06:14:28;;;;;;;43.92;32.65;;;19.30;98.90;;;;;;4958234;28;20018;-87
2023/09/09 06:16:54;;;;;;;44.47;33.30;;;19.30;98.90;;;;;;4976146;28;20037;-87
2023/09/09 06:19:19;;;;;;;39.40;31.52;;;19.30;98.90;;;;;;4974584;28;20603;-87
2023/09/09 06:21:45;;;;;;;54.33;31.92;;;19.30;99.00;;;;;;4975288;28;20023;-87
2023/09/09 06:24:12;;;;;;;37.83;29.95;;;19.30;99.10;;;;;;4975117;28;20082;-86
2023/09/09 06:26:38;;;;;;;32.78;29.38;;;19.40;99.20;;;;;;4975006;28;20031;-86
2023/09/09 06:29:04;;;;;;;67.32;31.23;;;19.40;99.20;;;;;;4957727;28;20050;-87
2023/09/09 06:31:30;;;;;;;35.53;30.02;;;19.50;99.20;;;;;;4975598;28;20114;-88
2023/09/09 06:33:56;;;;;;;42.00;28.80;;;19.50;99.20;;;;;;4975409;28;20169;-87
2023/09/09 06:36:22;;;;;;;57.30;30.35;;;19.50;99.20;;;;;;4958524;28;20118;-88
2023/09/09 06:38:48;;;;;;;57.38;29.77;;;19.40;99.10;;;;;;4975877;28;20042;-87
2023/09/09 06:41:15;;;;;;;48.35;28.75;;;19.40;99.00;;;;;;4984176;28;20099;-85
2023/09/09 06:43:41;;;;;;;35.95;28.90;;;19.40;99.00;;;;;;4994768;28;20034;-86
2023/09/09 06:46:07;;;;;;;35.85;28.52;;;19.40;99.10;;;;;;4994169;28;20019;-83
2023/09/09 06:48:32;;;;;;;46.90;30.17;;;19.40;99.10;;;;;;4994314;28;20476;-86
2023/09/09 06:50:58;;;;;;;44.42;30.75;;;19.40;99.10;;;;;;4994008;28;20031;-87
2023/09/09 06:53:24;;;;;;;36.72;29.02;;;19.50;99.10;;;;;;4993683;28;20069;-85
2023/09/09 06:55:51;;;;;;;33.75;30.15;;;19.40;99.20;;;;;;4972336;28;20373;-88
2023/09/09 06:58:17;;;;;;;38.97;34.75;;;19.50;99.40;;;;;;4978883;28;20054;-87
2023/09/09 07:00:48;;;;;;;40.22;32.13;;;19.50;99.40;;;;;;4979039;28;20061;-87
2023/09/09 07:03:14;;;;;;;37.90;30.13;;;19.50;99.30;;;;;;4961326;28;20023;-87
2023/09/09 07:05:39;;;;;;;35.55;31.98;;;19.60;99.30;;;;;;4986824;28;20109;-88
2023/09/09 07:08:05;;;;;;;40.00;31.35;;;19.60;99.30;;;;;;4995514;28;20053;-88
2023/09/09 07:10:30;;;;;;;37.72;29.75;;;19.70;99.30;;;;;;4978170;28;20025;-87
2023/09/09 07:12:56;;;;;;;47.92;32.15;;;19.70;99.30;;;;;;4975540;28;20030;-82
2023/09/09 07:15:22;;;;;;;53.03;32.45;;;19.70;99.20;;;;;;4971955;28;20027;-88
2023/09/09 07:17:47;;;;;;;46.28;32.67;;;19.70;99.10;;;;;;4972317;28;20046;-88
2023/09/09 07:20:13;;;;;;;35.42;30.88;;;19.70;99.10;;;;;;4993207;28;20029;-88
2023/09/09 07:22:39;;;;;;;36.35;32.53;;;19.70;99.20;;;;;;4994738;28;20050;-88
2023/09/09 07:25:06;;;;;;;38.03;34.00;;;19.80;99.20;;;;;;4994598;28;20026;-88
2023/09/09 07:27:31;;;;;;;38.25;34.05;;;19.80;99.20;;;;;;4977172;28;20134;-88
2023/09/09 07:29:57;;;;;;;42.65;34.42;;;19.80;99.30;;;;;;4977243;28;20058;-88
2023/09/09 07:32:23;;;;;;;38.88;32.80;;;20.00;99.40;;;;;;4994900;28;20109;-87
2023/09/09 07:34:49;;;;;;;50.17;32.90;;;20.10;99.50;;;;;;4993706;28;20022;-89
2023/09/09 07:37:15;;;;;;;45.97;32.95;;;20.10;99.50;;;;;;4993527;28;20093;-87
2023/09/09 07:39:52;;;;;;;51.22;34.88;;;20.10;99.40;;;;;;4993755;28;20104;-86
2023/09/09 07:42:18;;;;;;;50.67;34.75;;;20.20;99.40;;;;;;4992549;28;20044;-88
2023/09/09 07:44:44;;;;;;;40.75;34.08;;;20.30;99.30;;;;;;4975959;28;20443;-88
2023/09/09 07:47:11;;;;;;;44.63;36.83;;;20.30;99.30;;;;;;4976442;28;20026;-88
2023/09/09 07:49:36;;;;;;;54.80;36.35;;;20.40;99.40;;;;;;4993095;28;20026;-88
2023/09/09 07:52:03;;;;;;;53.60;36.63;;;20.50;99.40;;;;;;4993784;28;20026;-85
2023/09/09 07:54:32;;;;;;;56.22;39.53;;;20.50;99.30;;;;;;4993081;28;20038;-86
2023/09/09 07:56:58;;;;;;;48.67;40.40;;;20.60;99.30;;;;;;4975756;28;20101;-86
2023/09/09 07:59:30;;;;;;;47.60;36.55;;;20.60;99.10;;;;;;4993370;28;20080;-87
2023/09/09 08:01:56;;;;;;;44.78;38.80;;;20.70;99.10;;;;;;4999597;28;20034;-86
2023/09/09 08:04:23;;;;;;;53.85;41.90;;;20.70;99.20;;;;;;4993878;28;20034;-85
2023/09/09 08:06:52;;;;;;;48.20;40.50;;;20.90;99.20;;;;;;4976447;28;20027;-86
2023/09/09 08:09:19;;;;;;;46.53;41.10;;;20.90;99.10;;;;;;4994405;28;20038;-84
2023/09/09 08:11:44;;;;;;;48.78;40.10;;;21.00;99.10;;;;;;4994532;28;20045;-87
2023/09/09 08:14:11;;;;;;;46.42;39.72;;;21.10;99.10;;;;;;4978065;28;20508;-89
2023/09/09 08:16:36;;;;;;;50.58;42.95;;;21.20;99.00;;;;;;4995365;28;20030;-88
2023/09/09 08:19:03;;;;;;;51.78;43.95;;;21.30;98.80;;;;;;5003601;28;20030;-87
2023/09/09 08:21:28;;;;;;;54.75;45.03;;;21.30;98.70;;;;;;5011204;28;20030;-85
2023/09/09 08:23:59;;;;;;;56.03;45.83;;;21.30;98.70;;;;;;5010314;28;20024;-88
2023/09/09 08:26:25;;;;;;;52.85;44.08;;;21.30;98.70;;;;;;5014881;28;20018;-81
2023/09/09 08:28:50;;;;;;;54.58;43.60;;;21.40;98.70;;;;;;4999327;28;20027;-86
2023/09/09 08:31:16;;;;;;;51.08;42.33;;;21.50;98.60;;;;;;5014944;28;20045;-86
2023/09/09 08:33:41;;;;;;;56.85;49.17;;;21.60;98.60;;;;;;5002997;28;20030;-82
2023/09/09 08:36:07;;;;;;;56.28;46.58;;;21.70;98.40;;;;;;5009359;28;20043;-88
2023/09/09 08:38:32;;;;;;;57.15;47.97;;;21.70;98.40;;;;;;5001614;28;20090;-87
2023/09/09 08:41:24;;;;;;;56.25;47.47;;;21.80;98.30;;;;;;4996848;28;20033;-85
2023/09/09 08:44:03;;;;;;;52.70;44.30;;;21.80;98.20;;;;;;5008885;28;20006;-89
2023/09/09 08:46:29;;;;;;;56.20;46.72;;;21.90;98.20;;;;;;5007774;28;20038;-85
2023/09/09 08:48:57;;;;;;;57.10;48.30;;;21.90;98.10;;;;;;5007080;28;20089;-87
2023/09/09 08:51:30;;;;;;;58.30;47.08;;;22.00;98.20;;;;;;4990560;28;20113;-85
2023/09/09 08:53:56;;;;;;;52.25;43.55;;;22.10;98.10;;;;;;5003977;28;20041;-82
2023/09/09 08:56:23;;;;;;;63.58;51.75;;;22.10;98.00;;;;;;4985166;28;20117;-87
2023/09/09 08:58:48;;;;;;;58.60;51.22;;;22.20;98.00;;;;;;4975967;28;20080;-88
2023/09/09 09:01:15;;;;;;;61.92;53.60;;;22.30;97.90;;;;;;4992292;28;20309;-89
2023/09/09 09:03:42;;;;;;;57.97;48.42;;;22.30;97.80;;;;;;4974658;28;20030;-82
2023/09/09 09:06:09;;;;;;;59.65;48.10;;;22.30;97.70;;;;;;4992214;28;20030;-87
2023/09/09 09:08:35;;;;;;;57.92;47.78;;;22.40;97.70;;;;;;4992430;28;20038;-85
2023/09/09 09:11:03;;;;;;;54.80;47.80;;;22.50;97.60;;;;;;4991938;28;20022;-88
2023/09/09 09:13:33;;;;;;;54.22;46.63;;;22.60;97.60;;;;;;4992212;28;20026;-84
2023/09/09 09:16:01;;;;;;;59.97;50.65;;;22.60;97.60;;;;;;4973978;28;20027;-84
2023/09/09 09:18:28;;;;;;;54.95;41.78;;;22.70;97.60;;;;;;4991893;28;20022;-84
2023/09/09 09:21:13;;;;;;;54.42;46.60;;;22.80;97.50;;;;;;4974454;28;20019;-87
2023/09/09 09:23:45;;;;;;;50.60;44.33;;;22.80;97.40;;;;;;4992722;28;20054;-88
2023/09/09 09:26:26;;;;;;;51.38;42.30;;;22.90;97.40;;;;;;4993101;28;20500;-87
2023/09/09 09:28:52;;;;;;;48.28;39.60;;;23.10;97.40;;;;;;4968500;28;20048;-87
2023/09/09 09:31:22;;;;;;;50.67;41.72;;;23.20;97.30;;;;;;4973798;28;20113;-89
2023/09/09 09:33:50;;;;;;;50.40;42.33;;;23.30;97.20;;;;;;4989636;28;20564;-87
2023/09/09 09:36:19;;;;;;;49.05;41.58;;;23.30;97.10;;;;;;4969281;28;20112;-87
2023/09/09 09:38:44;;;;;;;52.30;43.75;;;23.40;97.00;;;;;;4995859;28;20030;-88
2023/09/09 09:41:10;;;;;;;47.42;39.92;;;23.50;96.90;;;;;;4996908;28;20033;-88
2023/09/09 09:43:36;;;;;;;51.45;43.53;;;23.60;96.80;;;;;;4996664;28;20030;-87
2023/09/09 09:46:21;;;;;;;44.42;39.20;;;23.70;96.70;;;;;;4979630;28;20034;-88
2023/09/09 09:48:48;;;;;;;48.35;41.53;;;23.80;96.60;;;;;;4981112;28;20444;-88
2023/09/09 09:51:14;;;;;;;43.97;38.10;;;23.90;96.40;;;;;;4992821;28;20037;-90
2023/09/09 09:53:49;;;;;;;45.13;38.05;;;24.00;96.40;;;;;;4979967;28;20034;-89
2023/09/09 09:56:15;;;;;;;43.92;37.45;;;24.00;96.30;;;;;;4996610;28;20114;-90
2023/09/09 09:58:44;;;;;;;41.25;35.08;;;24.20;96.20;;;;;;4997240;28;20035;-88
2023/09/09 10:01:10;;;;;;;40.15;33.88;;;24.30;96.10;;;;;;4996901;28;20113;-90
2023/09/09 10:03:51;;;;;;;37.38;32.25;;;24.50;96.00;;;;;;4996965;28;20515;-89
2023/09/09 10:06:21;;;;;;;32.28;28.42;;;24.70;95.70;;;;;;4995615;28;20042;-83
2023/09/09 10:08:54;;;;;;;31.27;27.98;;;25.00;95.40;;;;;;4995555;28;20531;-86
2023/09/09 10:11:24;;;;;;;33.08;28.50;;;25.30;95.00;;;;;;4996003;28;20034;-87
2023/09/09 10:14:04;;;;;;;28.20;24.67;;;25.70;94.60;;;;;;4982159;28;20499;-88
2023/09/09 10:16:32;;;;;;;23.92;20.98;;;26.20;94.30;;;;;;4976220;28;20468;-85
2023/09/09 10:18:59;;;;;;;24.17;21.60;;;26.60;94.30;;;;;;4969459;28;20499;-88
2023/09/09 10:21:26;;;;;;;22.23;18.52;;;27.20;94.00;;;;;;4994906;28;20022;-88
2023/09/09 10:23:54;;;;;;;22.65;17.83;;;27.80;93.40;;;;;;4995053;28;20137;-89
2023/09/09 10:26:21;;;;;;;20.05;17.42;;;28.50;92.80;;;;;;4996357;28;20026;-87
2023/09/09 10:28:49;;;;;;;18.23;16.30;;;29.20;91.80;;;;;;4995884;28;20155;-89
2023/09/09 10:31:15;;;;;;;15.30;13.70;;;29.90;90.80;;;;;;4995581;28;20535;-85
2023/09/09 10:33:42;;;;;;;19.55;15.02;;;30.60;89.90;;;;;;4995248;28;20491;-86
2023/09/09 10:36:08;;;;;;;17.38;14.45;;;31.20;86.70;;;;;;4996394;28;20385;-85
2023/09/09 10:38:34;;;;;;;14.63;13.02;;;31.90;83.90;;;;;;4996473;28;20042;-85
2023/09/09 10:41:02;;;;;;;15.02;12.70;;;32.40;81.30;;;;;;4996532;28;20027;-86
2023/09/09 10:43:28;;;;;;;13.57;11.35;;;32.90;78.30;;;;;;4978882;28;20038;-84
2023/09/09 10:45:54;;;;;;;14.23;12.65;;;33.10;75.60;;;;;;4996270;28;20035;-82
2023/09/09 10:48:21;;;;;;;13.68;11.57;;;33.20;73.20;;;;;;4995263;28;20038;-84
2023/09/09 10:50:51;;;;;;;13.88;12.40;;;33.10;71.30;;;;;;4995999;28;20019;-85
2023/09/09 10:53:19;;;;;;;14.88;11.82;;;33.10;69.90;;;;;;4995613;28;20548;-87
2023/09/09 10:55:46;;;;;;;12.85;11.48;;;33.00;68.50;;;;;;4977720;28;20027;-85
2023/09/09 10:58:16;;;;;;;12.55;10.80;;;32.90;67.30;;;;;;4995286;28;20066;-85
2023/09/09 11:00:45;;;;;;;12.13;10.60;;;32.90;66.30;;;;;;4995078;28;20019;-87
2023/09/09 11:03:21;;;;;;;10.70;9.60;;;32.90;65.60;;;;;;4995241;28;20022;-88
2023/09/09 11:06:10;;;;;;;14.68;10.00;;;32.80;64.80;;;;;;4993884;28;20164;-86
2023/09/09 11:08:44;;;;;;;10.57;7.38;;;32.80;64.80;;;;;;4977373;28;20092;-87
2023/09/09 11:11:22;;;;;;;10.93;8.30;;;32.80;63.70;;;;;;4995151;28;20064;-86
2023/09/09 11:13:57;;;;;;;8.73;7.43;;;32.80;63.10;;;;;;4995524;28;20026;-85
2023/09/09 11:16:40;;;;;;;10.05;8.25;;;32.80;62.40;;;;;;4992598;28;20034;-88
2023/09/09 11:19:06;;;;;;;;;;;32.80;61.80;;;;;;4993200;28;20072;-87
2023/09/09 11:21:34;;;;;;;11.43;7.03;;;32.90;62.10;;;;;;4994268;28;19910;-89
2023/09/09 11:24:01;;;;;;;8.95;6.82;;;32.90;62.30;;;;;;4994804;28;20434;-87
2023/09/09 11:26:27;;;;;;;9.77;5.72;;;33.00;61.60;;;;;;4994981;28;20117;-87
2023/09/09 11:28:53;;;;;;;7.07;5.60;;;33.00;61.00;;;;;;4994906;28;20152;-88
2023/09/09 11:31:19;;;;;;;8.55;6.13;;;33.20;60.60;;;;;;4994999;28;20026;-86
2023/09/09 11:33:45;;;;;;;8.25;6.00;;;33.20;59.90;;;;;;4994515;28;20504;-87
2023/09/09 11:36:15;;;;;;;7.32;4.80;;;33.40;59.30;;;;;;4994422;28;20026;-86
2023/09/09 11:38:41;;;;;;;6.25;4.90;;;33.50;58.80;;;;;;4995362;28;20031;-88
2023/09/09 11:41:07;;;;;;;5.13;3.95;;;33.60;58.60;;;;;;4976932;28;20041;-88
2023/09/09 11:43:32;;;;;;;5.93;4.70;;;33.70;58.20;;;;;;4993859;28;20038;-88
2023/09/09 11:45:59;;;;;;;6.32;3.95;;;33.80;58.00;;;;;;4993979;28;20406;-87
2023/09/09 11:48:25;;;;;;;5.90;4.13;;;33.90;57.70;;;;;;4993853;28;20069;-87
2023/09/09 11:50:51;;;;;;;7.32;3.97;;;34.20;57.30;;;;;;4994266;28;20022;-87
2023/09/09 11:53:20;;;;;;;6.28;3.38;;;34.20;56.70;;;;;;4976515;28;20080;-86
2023/09/09 11:55:50;;;;;;;6.90;3.38;;;34.30;56.60;;;;;;4994188;28;20690;-87
2023/09/09 11:58:16;;;;;;;6.95;3.67;;;34.50;56.70;;;;;;4994212;28;20045;-85
2023/09/09 12:00:42;;;;;;;6.18;3.03;;;34.60;56.40;;;;;;4993655;28;20034;-88
2023/09/09 12:03:07;;;;;;;4.63;2.83;;;34.80;55.90;;;;;;4994088;28;20034;-88
2023/09/09 12:05:33;;;;;;;5.95;2.53;;;34.80;55.10;;;;;;4994046;28;20073;-88
2023/09/09 12:08:01;;;;;;;3.40;2.30;;;34.90;54.30;;;;;;4994468;28;20065;-86
2023/09/09 12:10:33;;;;;;;3.53;2.75;;;35.00;53.30;;;;;;4995018;28;20034;-89
2023/09/09 12:12:59;;;;;;;;;;;35.10;52.20;;;;;;4994009;28;20094;-84
2023/09/09 12:15:25;;;;;;;3.60;1.95;;;35.20;52.20;;;;;;4975279;28;19922;-87
2023/09/09 12:17:50;;;;;;;3.70;2.45;;;35.20;52.30;;;;;;4975098;28;20038;-88
2023/09/09 12:20:16;;;;;;;2.95;1.83;;;35.30;51.40;;;;;;4992560;28;20037;-89
2023/09/09 12:22:51;;;;;;;2.75;1.67;;;35.40;50.80;;;;;;4992716;28;20042;-86
2023/09/09 12:25:34;;;;;;;3.58;2.30;;;35.40;49.60;;;;;;4975514;28;20022;-84
2023/09/09 12:28:01;;;;;;;5.80;2.00;;;35.70;48.60;;;;;;4976227;28;20039;-88
2023/09/09 12:30:40;;;;;;;3.08;2.17;;;35.90;48.70;;;;;;4994190;28;20480;-87